createdAt,value
2018-12-23T00:00:48.673Z,102219.22
2018-12-23T00:03:17.061Z,102227.59
2018-12-23T00:05:45.595Z,102216.73
2018-12-23T00:08:14.108Z,102212.98
2018-12-23T00:10:42.563Z,102204.73
2018-12-23T00:13:11.093Z,102202.78
2018-12-23T00:15:39.880Z,102197.61
2018-12-23T00:18:08.321Z,102208.39
2018-12-23T00:20:36.949Z,102212.64
2018-12-23T00:23:05.505Z,102209.19
2018-12-23T00:25:33.865Z,102214.30
2018-12-23T00:28:02.354Z,102216.56
2018-12-23T00:30:30.887Z,102215.59
2018-12-23T00:33:00.272Z,102216.42
2018-12-23T00:35:28.684Z,102203.30
2018-12-23T00:37:57.062Z,102210.06
2018-12-23T00:40:25.585Z,102209.66
2018-12-23T00:42:53.973Z,102198.63
2018-12-23T00:45:22.491Z,102194.67
2018-12-23T00:47:51.374Z,102189.61
2018-12-23T00:50:19.740Z,102192.89
2018-12-23T00:52:48.066Z,102195.64
2018-12-23T00:55:29.605Z,102210.66
2018-12-23T00:57:57.996Z,102208.90
2018-12-23T01:00:26.329Z,102207.58
2018-12-23T01:02:54.783Z,102213.05
2018-12-23T01:05:28.774Z,102216.27
2018-12-23T01:07:53.462Z,102213.75
2018-12-23T01:10:21.857Z,102219.05
2018-12-23T01:12:50.370Z,102221.17
2018-12-23T01:15:18.861Z,102225.70
2018-12-23T01:17:47.267Z,102226.08
2018-12-23T01:20:16.369Z,102231.95
2018-12-23T01:22:44.825Z,102229.20
2018-12-23T01:25:13.167Z,102226.34
2018-12-23T01:27:41.481Z,102225.81
2018-12-23T01:30:09.961Z,102211.42
2018-12-23T01:32:38.459Z,102216.26
2018-12-23T01:35:06.808Z,102220.48
2018-12-23T01:37:35.154Z,102219.89
2018-12-23T01:40:03.758Z,102229.58
2018-12-23T01:42:32.080Z,102231.48
2018-12-23T01:45:00.481Z,102238.42
2018-12-23T01:47:28.806Z,102237.86
2018-12-23T01:49:57.178Z,102244.23
2018-12-23T01:52:25.713Z,102242.34
2018-12-23T01:54:54.156Z,102238.08
2018-12-23T01:57:22.471Z,102237.05
2018-12-23T01:59:51.025Z,102234.99
2018-12-23T02:02:19.536Z,102235.02
2018-12-23T02:04:49.023Z,102230.49
2018-12-23T02:09:24.061Z,102233.53
2018-12-23T02:11:53.301Z,102232.44
2018-12-23T02:14:21.923Z,102230.17
2018-12-23T02:16:50.475Z,102234.16
2018-12-23T02:19:18.793Z,102233.00
2018-12-23T02:21:47.232Z,102236.34
2018-12-23T02:24:15.499Z,102233.98
2018-12-23T02:26:43.941Z,102240.27
2018-12-23T02:29:12.275Z,102232.18
2018-12-23T02:31:40.653Z,102232.97
2018-12-23T02:34:09.271Z,102231.59
2018-12-23T02:36:37.642Z,102229.16
2018-12-23T02:39:08.442Z,102221.19
2018-12-23T02:41:37.165Z,102224.95
2018-12-23T02:44:05.772Z,102220.02
2018-12-23T02:46:34.121Z,102223.05
2018-12-23T02:49:02.671Z,102222.64
2018-12-23T02:51:32.253Z,102220.42
2018-12-23T02:54:00.592Z,102222.64
2018-12-23T02:56:29.120Z,102228.34
2018-12-23T02:58:57.654Z,102225.20
2018-12-23T03:01:26.147Z,102222.20
2018-12-23T03:03:55.891Z,102232.89
2018-12-23T03:06:24.242Z,102234.44
2018-12-23T03:08:52.570Z,102233.63
2018-12-23T03:11:21.020Z,102230.18
2018-12-23T03:13:50.373Z,102225.22
2018-12-23T03:16:18.784Z,102235.68
2018-12-23T03:18:47.323Z,102235.26
2018-12-23T03:21:15.818Z,102229.69
2018-12-23T03:23:44.278Z,102232.44
2018-12-23T03:26:12.617Z,102234.41
2018-12-23T03:28:41.073Z,102238.22
2018-12-23T03:31:09.615Z,102231.88
2018-12-23T03:33:38.316Z,102219.96
2018-12-23T03:36:14.764Z,102219.92
2018-12-23T03:38:37.003Z,102223.38
2018-12-23T03:41:05.388Z,102219.40
2018-12-23T03:43:33.700Z,102215.45
2018-12-23T03:46:02.146Z,102213.63
2018-12-23T03:48:30.643Z,102219.37
2018-12-23T03:50:59.202Z,102223.73
2018-12-23T03:53:27.489Z,102216.93
2018-12-23T03:55:55.802Z,102210.94
2018-12-23T03:58:24.303Z,102203.47
2018-12-23T04:00:53.520Z,102205.94
2018-12-23T04:03:21.825Z,102206.15
2018-12-23T04:05:52.078Z,102201.61
2018-12-23T04:08:20.589Z,102194.91
2018-12-23T04:10:49.149Z,102196.00
2018-12-23T04:16:53.379Z,102194.88
2018-12-23T04:19:21.869Z,102189.31
2018-12-23T04:21:50.750Z,102190.58
2018-12-23T04:24:19.101Z,102185.36
2018-12-23T04:26:47.536Z,102186.73
2018-12-23T04:29:15.877Z,102185.39
2018-12-23T04:31:44.107Z,102179.94
2018-12-23T04:34:12.629Z,102179.48
2018-12-23T04:36:42.174Z,102179.30
2018-12-23T04:39:10.407Z,102180.33
2018-12-23T04:41:38.904Z,102174.81
2018-12-23T04:44:07.171Z,102184.83
2018-12-23T04:46:35.601Z,102181.52
2018-12-23T04:49:04.129Z,102177.92
2018-12-23T04:55:36.821Z,102173.98
2018-12-23T04:58:05.076Z,102171.12
2018-12-23T05:00:33.411Z,102171.05
2018-12-23T05:03:02.019Z,102169.19
2018-12-23T05:05:30.422Z,102162.15
2018-12-23T05:07:58.887Z,102164.11
2018-12-23T05:10:27.419Z,102160.90
2018-12-23T05:12:55.745Z,102147.05
2018-12-23T05:15:23.981Z,102142.22
2018-12-23T05:17:52.401Z,102146.13
2018-12-23T05:20:20.790Z,102146.86
2018-12-23T05:22:50.065Z,102141.72
2018-12-23T05:25:18.448Z,102144.75
2018-12-23T05:27:46.926Z,102149.31
2018-12-23T05:30:15.575Z,102153.66
2018-12-23T05:32:43.857Z,102154.23
2018-12-23T05:35:12.307Z,102145.66
2018-12-23T05:37:40.773Z,102151.02
2018-12-23T05:40:09.367Z,102153.06
2018-12-23T05:42:37.677Z,102157.28
2018-12-23T05:45:06.365Z,102150.66
2018-12-23T05:47:34.730Z,102151.11
2018-12-23T05:50:03.021Z,102151.73
2018-12-23T05:52:31.504Z,102144.48
2018-12-23T05:54:59.734Z,102143.75
2018-12-23T05:57:28.021Z,102146.02
2018-12-23T05:59:56.356Z,102137.31
2018-12-23T06:02:24.607Z,102132.86
2018-12-23T06:04:53.089Z,102132.28
2018-12-23T06:07:21.393Z,102129.64
2018-12-23T06:09:49.968Z,102127.45
2018-12-23T06:12:18.241Z,102128.45
2018-12-23T06:14:46.627Z,102139.30
2018-12-23T06:17:15.158Z,102135.84
2018-12-23T06:19:43.551Z,102141.31
2018-12-23T06:22:11.859Z,102139.63
2018-12-23T06:24:40.248Z,102141.64
2018-12-23T06:27:08.691Z,102139.71
2018-12-23T06:29:37.149Z,102133.00
2018-12-23T06:32:05.448Z,102130.05
2018-12-23T06:34:33.730Z,102132.55
2018-12-23T06:37:09.736Z,102132.84
2018-12-23T06:39:32.837Z,102132.86
2018-12-23T06:42:01.978Z,102137.94
2018-12-23T06:44:30.412Z,102135.12
2018-12-23T06:46:58.913Z,102136.50
2018-12-23T06:49:27.470Z,102138.42
2018-12-23T06:51:55.909Z,102138.45
2018-12-23T06:54:24.406Z,102138.45
2018-12-23T06:56:52.760Z,102138.78
2018-12-23T06:59:21.112Z,102133.41
2018-12-23T07:01:50.070Z,102127.41
2018-12-23T07:04:18.545Z,102132.94
2018-12-23T07:06:47.350Z,102134.99
2018-12-23T07:09:16.200Z,102132.13
2018-12-23T07:11:45.489Z,102124.22
2018-12-23T07:14:14.089Z,102131.13
2018-12-23T07:16:42.571Z,102121.86
2018-12-23T07:19:10.994Z,102122.95
2018-12-23T07:21:39.647Z,102122.95
2018-12-23T07:24:08.750Z,102125.34
2018-12-23T07:26:37.034Z,102131.36
2018-12-23T07:29:05.309Z,102125.62
2018-12-23T07:31:33.682Z,102119.52
2018-12-23T07:34:02.521Z,102113.70
2018-12-23T07:36:31.248Z,102116.34
2018-12-23T07:38:59.683Z,102114.23
2018-12-23T07:41:27.898Z,102114.13
2018-12-23T07:43:56.158Z,102109.13
2018-12-23T07:46:24.541Z,102109.97
2018-12-23T07:48:52.915Z,102106.34
2018-12-23T07:51:21.301Z,102097.53
2018-12-23T07:53:50.542Z,102101.91
2018-12-23T07:56:18.911Z,102107.16
2018-12-23T07:58:47.341Z,102104.70
2018-12-23T08:01:15.636Z,102104.66
2018-12-23T08:03:44.101Z,102104.67
2018-12-23T08:10:20.176Z,102110.46
2018-12-23T08:12:49.030Z,102107.52
2018-12-23T08:15:17.457Z,102113.62
2018-12-23T08:17:46.072Z,102110.60
2018-12-23T08:20:14.358Z,102111.49
2018-12-23T08:22:42.650Z,102115.54
2018-12-23T08:25:11.169Z,102118.95
2018-12-23T08:27:39.435Z,102116.33
2018-12-23T08:30:07.737Z,102117.36
2018-12-23T08:32:36.125Z,102118.81
2018-12-23T08:35:04.758Z,102113.58
2018-12-23T08:37:33.046Z,102112.09
2018-12-23T08:40:01.368Z,102113.41
2018-12-23T08:42:29.862Z,102106.87
2018-12-23T08:45:05.996Z,102108.80
2018-12-23T08:47:34.440Z,102101.37
2018-12-23T08:50:03.346Z,102096.72
2018-12-23T08:52:31.678Z,102093.03
2018-12-23T08:55:00.162Z,102094.87
2018-12-23T08:57:28.586Z,102088.90
2018-12-23T08:59:57.093Z,102089.74
2018-12-23T09:02:25.528Z,102077.72
2018-12-23T09:04:53.937Z,102075.42
2018-12-23T09:07:23.032Z,102066.33
2018-12-23T09:09:52.121Z,102063.94
2018-12-23T09:12:21.108Z,102058.44
2018-12-23T09:14:51.389Z,102052.91
2018-12-23T09:17:19.733Z,102053.83
2018-12-23T09:19:48.788Z,102057.77
2018-12-23T09:22:17.263Z,102054.50
2018-12-23T09:24:45.831Z,102049.17
2018-12-23T09:27:14.386Z,102046.31
2018-12-23T09:29:42.868Z,102048.07
2018-12-23T09:32:11.590Z,102040.08
2018-12-23T09:34:39.984Z,102043.63
2018-12-23T09:41:24.750Z,102040.98
2018-12-23T09:43:53.177Z,102043.61
2018-12-23T09:46:22.375Z,102044.03
2018-12-23T09:48:53.951Z,102039.61
2018-12-23T09:51:22.237Z,102036.45
2018-12-23T09:53:51.701Z,102036.58
2018-12-23T09:56:20.335Z,102024.88
2018-12-23T09:58:49.960Z,102026.30
2018-12-23T10:01:18.334Z,102016.62
2018-12-23T10:03:47.026Z,102018.52
2018-12-23T10:06:15.552Z,102013.69
2018-12-23T10:08:44.046Z,102018.47
2018-12-23T10:11:12.428Z,102019.45
2018-12-23T10:13:40.930Z,102015.41
2018-12-23T10:16:09.291Z,102015.73
2018-12-23T10:18:41.794Z,102017.16
2018-12-23T10:21:10.312Z,102014.23
2018-12-23T10:23:38.657Z,102005.48
2018-12-23T10:26:06.928Z,102002.83
2018-12-23T10:28:35.315Z,101992.17
2018-12-23T10:31:03.668Z,101993.31
2018-12-23T10:33:32.610Z,101987.67
2018-12-23T10:36:00.995Z,101983.93
2018-12-23T10:38:29.383Z,101978.51
2018-12-23T10:40:57.811Z,101973.38
2018-12-23T10:43:26.187Z,101973.45
2018-12-23T10:45:54.758Z,101974.86
2018-12-23T10:48:24.494Z,101967.12
2018-12-23T10:50:52.853Z,101967.41
2018-12-23T10:53:21.162Z,101955.43
2018-12-23T10:55:50.894Z,101950.84
2018-12-23T10:58:19.564Z,101949.19
2018-12-23T11:00:47.943Z,101943.08
2018-12-23T11:07:12.080Z,101935.91
2018-12-23T11:09:40.862Z,101927.05
2018-12-23T11:12:10.020Z,101914.48
2018-12-23T11:14:40.290Z,101911.40
2018-12-23T11:17:08.691Z,101904.91
2018-12-23T11:19:37.174Z,101905.56
2018-12-23T11:22:06.376Z,101900.91
2018-12-23T11:24:36.217Z,101901.05
2018-12-23T11:27:05.024Z,101900.25
2018-12-23T11:29:35.615Z,101890.73
2018-12-23T11:32:05.792Z,101890.41
2018-12-23T11:34:37.569Z,101874.66
2018-12-23T11:37:10.082Z,101878.72
2018-12-23T11:39:39.939Z,101881.09
2018-12-23T11:42:10.141Z,101871.83
2018-12-23T11:48:29.821Z,101815.25
2018-12-23T11:54:27.676Z,101843.23
2018-12-23T12:00:20.716Z,101834.60
2018-12-23T12:03:01.559Z,101821.41
2018-12-23T12:08:43.756Z,101813.44
2018-12-23T12:14:16.352Z,101713.14
2018-12-23T12:16:54.773Z,101787.27
2018-12-23T12:19:50.279Z,101782.66
2018-12-23T12:25:54.005Z,101760.60
2018-12-23T12:28:37.331Z,101756.47
2018-12-23T12:31:24.721Z,101747.78
2018-12-23T12:34:29.955Z,101746.48
2018-12-23T12:36:59.040Z,101741.45
2018-12-23T12:40:06.426Z,101751.63
2018-12-23T12:42:47.487Z,101745.39
2018-12-23T12:45:35.438Z,101747.17
2018-12-23T12:48:16.287Z,101739.03
2018-12-23T12:51:04.178Z,101722.22
2018-12-23T12:53:48.148Z,101708.78
2018-12-23T12:56:57.446Z,101712.70
2018-12-23T12:59:44.445Z,101705.02
2018-12-23T13:02:25.163Z,101687.08
2018-12-23T13:05:13.329Z,101675.25
2018-12-23T13:07:54.360Z,101667.03
2018-12-23T13:10:42.274Z,101663.53
2018-12-23T13:13:23.899Z,101649.85
2018-12-23T13:16:11.753Z,101643.92
2018-12-23T13:18:59.110Z,101639.20
2018-12-23T13:21:48.452Z,101630.93
2018-12-23T13:24:28.969Z,101633.59
2018-12-23T13:27:16.853Z,101614.62
2018-12-23T13:30:01.423Z,101619.50
2018-12-23T13:32:45.043Z,101607.08
2018-12-23T13:35:35.998Z,101620.30
2018-12-23T13:38:36.167Z,101612.58
2018-12-23T13:41:29.934Z,101611.63
2018-12-23T13:44:56.442Z,101622.95
2018-12-23T13:47:59.290Z,101604.91
2018-12-23T13:51:25.877Z,101554.08
2018-12-23T13:54:14.055Z,101588.66
2018-12-23T13:57:28.696Z,101597.97
2018-12-23T14:00:29.755Z,101487.12
2018-12-23T14:03:35.995Z,101553.83
2018-12-23T14:07:02.757Z,101534.95
2018-12-23T14:10:02.796Z,101542.59
2018-12-23T14:12:44.030Z,101539.02
2018-12-23T14:15:31.912Z,101539.79
2018-12-23T14:18:12.686Z,101525.00
2018-12-23T14:21:00.753Z,101520.20
2018-12-23T14:23:43.603Z,101524.57
2018-12-23T14:26:31.670Z,101541.17
2018-12-23T14:29:16.107Z,101561.16
2018-12-23T14:32:03.898Z,101562.07
2018-12-23T14:34:45.988Z,101562.95
2018-12-23T14:37:39.949Z,101553.91
2018-12-23T14:40:21.285Z,101520.64
2018-12-23T14:43:15.411Z,101517.42
2018-12-23T14:45:55.972Z,101448.28
2018-12-23T14:52:24.343Z,101419.11
2018-12-23T14:55:12.309Z,101516.56
2018-12-23T15:01:15.775Z,101505.09
2018-12-23T15:04:09.639Z,101512.05
2018-12-23T15:06:50.979Z,101507.13
2018-12-23T15:09:39.187Z,101417.83
2018-12-23T15:12:20.610Z,101499.81
2018-12-23T15:15:06.225Z,101479.28
2018-12-23T15:17:54.234Z,101459.52
2018-12-23T15:20:36.179Z,101464.19
2018-12-23T15:23:24.181Z,101467.28
2018-12-23T15:32:18.478Z,101452.94
2018-12-23T15:35:00.443Z,101466.95
2018-12-23T15:37:48.463Z,101364.11
2018-12-23T15:41:00.832Z,101439.45
2018-12-23T15:43:42.031Z,101454.58
2018-12-23T15:46:30.102Z,101448.87
2018-12-23T15:49:15.037Z,101442.97
2018-12-23T15:52:00.180Z,101441.59
2018-12-23T16:03:45.432Z,101448.97
2018-12-23T16:06:33.253Z,101441.84
2018-12-23T16:09:14.216Z,101443.22
2018-12-23T16:11:55.368Z,101452.00
2018-12-23T16:14:38.894Z,101435.28
2018-12-23T16:17:26.795Z,101423.89
2018-12-23T16:20:09.912Z,101417.27
2018-12-23T16:23:38.409Z,101407.81
2018-12-23T16:26:19.897Z,101323.20
2018-12-23T16:29:08.173Z,101409.05
2018-12-23T16:31:49.811Z,101414.86
2018-12-23T16:34:37.741Z,101344.77
2018-12-23T16:37:18.911Z,101370.80
2018-12-23T16:40:09.720Z,101363.42
2018-12-23T16:42:50.804Z,101410.77
2018-12-23T16:45:38.918Z,101399.73
2018-12-23T16:48:21.002Z,101410.06
2018-12-23T16:51:08.954Z,101413.48
2018-12-23T16:53:49.400Z,101421.68
2018-12-23T16:56:37.268Z,101423.69
2018-12-23T16:59:18.258Z,101362.66
2018-12-23T17:02:07.876Z,101410.77
2018-12-23T17:04:48.736Z,101401.41
2018-12-23T17:07:36.718Z,101314.14
2018-12-23T17:10:17.819Z,101382.77
2018-12-23T17:12:59.167Z,101389.57
2018-12-23T17:15:47.062Z,101394.22
2018-12-23T17:18:28.305Z,101298.08
2018-12-23T17:21:16.345Z,101397.74
2018-12-23T17:23:57.335Z,101396.02
2018-12-23T17:26:45.244Z,101403.98
2018-12-23T17:29:25.643Z,101320.43
2018-12-23T17:32:13.519Z,101391.45
2018-12-23T17:34:54.114Z,101390.61
2018-12-23T17:37:41.961Z,101374.62
2018-12-23T17:40:23.033Z,101320.55
2018-12-23T17:43:10.975Z,101370.33
2018-12-23T17:45:51.581Z,101385.06
2018-12-23T17:48:39.593Z,101317.44
2018-12-23T17:51:20.395Z,101410.53
2018-12-23T17:54:08.263Z,101414.19
2018-12-23T17:56:48.721Z,101321.98
2018-12-23T17:59:48.792Z,101409.58
2018-12-23T18:02:19.452Z,101410.92
2018-12-23T18:05:07.358Z,101415.69
2018-12-23T18:07:47.711Z,101411.16
2018-12-23T18:10:35.635Z,101423.73
2018-12-23T18:13:16.418Z,101323.38
2018-12-23T18:16:04.416Z,101380.66
2018-12-23T18:18:45.397Z,101434.02
2018-12-23T18:21:33.295Z,101444.83
2018-12-23T18:24:14.631Z,101460.17
2018-12-23T18:27:02.406Z,101467.46
2018-12-23T18:29:43.101Z,101471.38
2018-12-23T18:35:39.780Z,101471.91
2018-12-23T18:38:27.704Z,101489.62
2018-12-23T18:41:15.775Z,101495.14
2018-12-23T18:44:03.666Z,101500.32
2018-12-23T18:46:51.763Z,101419.47
2018-12-23T18:49:32.384Z,101506.54
2018-12-23T18:52:20.529Z,101517.05
2018-12-23T18:55:02.437Z,101510.23
2018-12-23T18:57:50.433Z,101526.36
2018-12-23T19:00:31.687Z,101522.16
2018-12-23T19:03:18.073Z,101519.27
2018-12-23T19:06:08.094Z,101519.88
2018-12-23T19:09:01.213Z,101529.58
2018-12-23T19:12:15.049Z,101531.86
2018-12-23T19:15:15.672Z,101543.00
2018-12-23T19:18:16.430Z,101550.89
2018-12-23T19:21:39.313Z,101558.37
2018-12-23T19:24:39.907Z,101569.58
2018-12-23T19:28:13.748Z,101577.13
2018-12-23T19:31:16.638Z,101573.73
2018-12-23T19:34:43.227Z,101513.67
2018-12-23T19:40:39.316Z,101613.28
2018-12-23T19:44:05.753Z,101637.52
2018-12-23T19:47:06.501Z,101665.27
2018-12-23T19:50:34.101Z,101664.05
2018-12-23T19:53:34.954Z,101666.62
2018-12-23T19:57:02.647Z,101660.81
2018-12-23T20:00:06.643Z,101647.49
2018-12-23T20:03:07.069Z,101663.92
2018-12-23T20:06:33.561Z,101671.08
2018-12-23T20:09:21.097Z,101670.75
2018-12-23T20:12:47.609Z,101672.70
2018-12-23T20:15:50.949Z,101601.81
2018-12-23T20:19:07.971Z,101698.37
2018-12-23T20:22:09.088Z,101698.63
2018-12-23T20:25:35.700Z,101700.39
2018-12-23T20:28:35.824Z,101670.20
2018-12-23T20:31:50.432Z,101719.19
2018-12-23T20:34:52.164Z,101728.00
2018-12-23T20:38:18.882Z,101718.31
2018-12-23T20:41:26.220Z,101716.21
2018-12-23T20:44:14.968Z,101727.67
2018-12-23T20:47:41.494Z,101747.08
2018-12-23T20:50:42.051Z,101735.58
2018-12-23T20:54:08.625Z,101752.57
2018-12-23T20:57:08.514Z,101767.17
2018-12-23T21:00:35.131Z,101778.11
2018-12-23T21:03:35.665Z,101794.38
2018-12-23T21:07:02.228Z,101815.52
2018-12-23T21:09:53.154Z,101825.38
2018-12-23T21:13:19.595Z,101858.25
2018-12-23T21:16:22.512Z,101864.48
2018-12-23T21:19:49.226Z,101873.34
2018-12-23T21:22:42.463Z,101882.38
2018-12-23T21:26:00.491Z,101877.84
2018-12-23T21:29:14.160Z,101873.38
2018-12-23T21:32:29.717Z,101885.06
2018-12-23T21:35:29.785Z,101793.34
2018-12-23T21:38:59.522Z,101905.50
2018-12-23T21:42:05.757Z,101826.23
2018-12-23T21:45:06.657Z,101835.87
2018-12-23T21:48:33.371Z,101916.03
2018-12-23T21:51:33.398Z,101912.76
2018-12-23T21:54:59.920Z,101920.27
2018-12-23T21:57:52.067Z,101916.86
2018-12-23T22:01:18.693Z,101928.24
2018-12-23T22:04:17.357Z,101932.16
2018-12-23T22:07:33.959Z,101948.86
2018-12-23T22:10:18.905Z,101851.33
2018-12-23T22:13:26.197Z,101985.70
2018-12-23T22:16:07.034Z,101985.85
2018-12-23T22:18:50.292Z,101973.06
2018-12-23T22:21:41.623Z,101991.19
2018-12-23T22:24:23.190Z,101997.13
2018-12-23T22:30:01.166Z,102001.79
2018-12-23T22:32:49.137Z,102027.16
2018-12-23T22:35:29.977Z,102024.14
2018-12-23T22:38:18.161Z,101976.07
2018-12-23T22:41:00.993Z,102039.44
2018-12-23T22:43:41.713Z,102001.98
2018-12-23T22:46:29.828Z,102031.82
2018-12-23T22:49:08.999Z,102035.46
2018-12-23T22:51:57.043Z,102044.45
2018-12-23T22:54:38.143Z,102063.12
2018-12-23T22:57:26.177Z,102067.99
2018-12-23T23:00:07.351Z,102074.44
2018-12-23T23:02:55.307Z,102082.00
2018-12-23T23:05:36.043Z,102071.53
2018-12-23T23:08:23.946Z,102081.73
2018-12-23T23:11:05.214Z,102091.92
2018-12-23T23:13:53.016Z,102097.27
2018-12-23T23:16:34.181Z,102102.08
2018-12-23T23:19:22.148Z,102113.16
2018-12-23T23:22:03.347Z,102045.00
2018-12-23T23:24:51.382Z,102122.33
2018-12-23T23:27:32.262Z,102119.78
2018-12-23T23:30:20.218Z,102125.03
2018-12-23T23:33:01.252Z,102123.30
2018-12-23T23:35:49.160Z,102146.95
2018-12-23T23:38:30.302Z,102144.48
2018-12-23T23:41:18.182Z,102139.47
2018-12-23T23:43:59.360Z,102134.48
2018-12-23T23:46:47.345Z,102141.89
2018-12-23T23:49:28.514Z,102140.59
2018-12-23T23:52:16.437Z,102143.16
2018-12-23T23:54:57.138Z,102136.08
2018-12-23T23:57:45.158Z,102143.83
